Hauptseite
METAR-TAF:

METAR-TAF

Flughäfen :

Sønderborg, Dänemark

Flughafen Sønderborg

Breite: 54-58N, Länge: 009-47E, Höhe: 7 m

Beobachtung

Neuester Wetterbericht von vor 10 Minuten, um 11:50 UTC
Wind 12 kt aus West/Nordwest
Temperatur 17°C
Luftfeuchtigkeit 72%
Luftdruck 1019 hPa
Sichtweite 10 km oder mehr
Leicht bewölkt in der Höhe von 2200 ft
Durchbrochene Bewölkung in der Höhe von 3000 ft

METAR: EKSB 211150Z 29012KT 9999 FEW022 BKN030 17/12 Q1019

Zeit: 14:00 (12:00 UTC)

Prognose

Neuester Wetterbericht von vor 3 Stunden und 5 Minuten, um 08:55 UTC
Gültige Prognose vom 21 um 09 UTC bis 21 um 18 UTC
Wind 12 kt aus West
Sichtweite 10 km oder mehr
Durchbrochene Bewölkung in der Höhe von 3500 ft

TAF: EKSB 210855Z 2109/2118 28012KT 9999 BKN035

Wetterbeobachtungen und Prognosen von mehr als 4000 Flughäfen (METAR und TAF Bericht).

Die verfügbaren Stationen werden durch gelbe und rote Markierungen auf der Karte dargestellt.

Führen Sie die Maus auf sie, um den Namen der Station zu sehen.

Darauf klicken, um die Beobachtung von Wetterbeobachtungen und Prognosen zu sehen.

Um die Karte zu ändern : klicken Sie auf den grünen Tasten mit einem schwarzen Kreuz Zum Vergrößern, auf den grünen Button mit einem Gedankenstrich zu verkleinern, oder auf die grünen Pfeile für benachbarte Karten.


METAR-TAF: